createdAt,value
2023-05-04T00:00:05.166Z,183.27
2023-05-04T00:01:04.885Z,184.11
2023-05-04T00:02:04.880Z,184.12
2023-05-04T00:03:04.974Z,184.70
2023-05-04T00:04:04.949Z,183.39
2023-05-04T00:05:04.871Z,183.79
2023-05-04T00:06:04.868Z,183.67
2023-05-04T00:07:04.872Z,184.35
2023-05-04T00:08:04.873Z,183.18
2023-05-04T00:09:04.869Z,183.21
2023-05-04T00:10:05.032Z,183.25
2023-05-04T00:11:04.881Z,183.62
2023-05-04T00:12:04.884Z,183.25
2023-05-04T00:13:04.920Z,183.09
2023-05-04T00:14:04.875Z,183.83
2023-05-04T00:15:04.881Z,183.96
2023-05-04T00:16:04.882Z,183.34
2023-05-04T00:17:04.889Z,184.05
2023-05-04T00:18:04.936Z,183.68
2023-05-04T00:19:04.915Z,184.78
2023-05-04T00:20:05.196Z,183.93
2023-05-04T00:21:04.932Z,183.97
2023-05-04T00:22:04.952Z,184.02
2023-05-04T00:23:04.942Z,183.96
2023-05-04T00:24:04.920Z,184.23
2023-05-04T00:25:04.936Z,184.33
2023-05-04T00:26:04.930Z,183.76
2023-05-04T00:27:04.925Z,184.26
2023-05-04T00:28:04.911Z,183.56
2023-05-04T00:29:04.906Z,183.45
2023-05-04T00:30:05.037Z,184.48
2023-05-04T00:31:04.911Z,183.75
2023-05-04T00:32:04.974Z,183.42
2023-05-04T00:33:04.992Z,182.13
2023-05-04T00:34:04.889Z,182.99
2023-05-04T00:35:04.927Z,181.21
2023-05-04T00:36:04.891Z,182.31
2023-05-04T00:37:04.890Z,182.37
2023-05-04T00:38:04.912Z,182.04
2023-05-04T00:39:04.897Z,181.46
2023-05-04T00:40:05.058Z,182.06
2023-05-04T00:41:04.897Z,181.90
2023-05-04T00:42:04.917Z,180.88
2023-05-04T00:43:04.895Z,182.74
2023-05-04T00:44:04.881Z,181.68
2023-05-04T00:45:04.888Z,181.74
2023-05-04T00:46:04.893Z,181.78
2023-05-04T00:47:04.938Z,181.87
2023-05-04T00:48:04.881Z,181.84
2023-05-04T00:49:04.877Z,181.59
2023-05-04T00:50:05.147Z,180.02
2023-05-04T00:51:04.878Z,181.02
2023-05-04T00:52:04.875Z,180.47
2023-05-04T00:53:04.882Z,180.80
2023-05-04T00:54:04.885Z,180.24
2023-05-04T00:55:04.887Z,180.52
2023-05-04T00:56:04.887Z,181.09
2023-05-04T00:57:04.898Z,179.73
2023-05-04T00:58:04.926Z,178.81
2023-05-04T00:59:04.982Z,179.15
2023-05-04T01:00:05.198Z,179.84
2023-05-04T01:01:05.036Z,179.31
2023-05-04T01:02:05.004Z,178.75
2023-05-04T01:03:05.154Z,178.12
2023-05-04T01:04:05.186Z,179.23
2023-05-04T01:05:05.070Z,178.30
2023-05-04T01:06:05.097Z,179.21
2023-05-04T01:07:05.141Z,178.79
2023-05-04T01:08:05.147Z,179.19
2023-05-04T01:09:05.164Z,179.17
2023-05-04T01:10:05.417Z,178.64
2023-05-04T01:11:05.208Z,178.14
2023-05-04T01:12:05.229Z,178.74
2023-05-04T01:13:05.303Z,178.68
2023-05-04T01:14:05.259Z,178.71
2023-05-04T01:15:05.271Z,178.85
2023-05-04T01:16:05.312Z,178.69
2023-05-04T01:17:05.557Z,179.83
2023-05-04T01:18:05.501Z,178.96
2023-05-04T01:19:05.456Z,179.69
2023-05-04T01:20:05.707Z,179.72
2023-05-04T01:21:05.522Z,178.82
2023-05-04T01:22:05.535Z,178.60
2023-05-04T01:23:05.563Z,178.53
2023-05-04T01:24:05.589Z,178.82
2023-05-04T01:25:05.645Z,179.47
2023-05-04T01:26:05.620Z,178.20
2023-05-04T01:27:05.639Z,178.17
2023-05-04T01:28:05.640Z,178.26
2023-05-04T01:29:05.680Z,178.85
2023-05-04T01:30:05.900Z,178.33
2023-05-04T01:31:05.702Z,178.57
2023-05-04T01:32:05.707Z,178.88
2023-05-04T01:33:05.709Z,177.81
2023-05-04T01:34:05.673Z,177.95
2023-05-04T01:35:05.654Z,176.85
2023-05-04T01:36:05.669Z,177.62
2023-05-04T01:37:05.689Z,178.68
2023-05-04T01:38:05.700Z,176.92
2023-05-04T01:39:05.721Z,177.35
2023-05-04T01:40:05.872Z,177.21
2023-05-04T01:41:05.702Z,176.77
2023-05-04T01:42:05.693Z,176.98
2023-05-04T01:43:05.682Z,176.42
2023-05-04T01:44:05.681Z,178.15
2023-05-04T01:45:05.715Z,177.47
2023-05-04T01:46:05.725Z,177.59
2023-05-04T01:47:05.701Z,178.05
2023-05-04T01:48:05.745Z,177.87
2023-05-04T01:49:05.742Z,178.11
2023-05-04T01:50:05.961Z,177.70
2023-05-04T01:51:05.741Z,177.86
2023-05-04T01:52:05.782Z,177.67
2023-05-04T01:53:05.793Z,178.30
2023-05-04T01:54:05.819Z,177.12
2023-05-04T01:55:05.841Z,176.57
2023-05-04T01:56:05.860Z,177.77
2023-05-04T01:57:05.863Z,177.39
2023-05-04T01:58:05.860Z,177.24
2023-05-04T01:59:05.890Z,176.82
2023-05-04T02:00:06.315Z,178.32
2023-05-04T02:01:05.925Z,176.88
2023-05-04T02:02:05.956Z,176.96
2023-05-04T02:03:06.046Z,176.43
2023-05-04T02:04:06.046Z,176.42
2023-05-04T02:05:05.951Z,175.71
2023-05-04T02:06:05.977Z,176.66
2023-05-04T02:07:05.991Z,176.30
2023-05-04T02:08:05.997Z,175.76
2023-05-04T02:09:06.013Z,176.78
2023-05-04T02:10:06.184Z,176.59
2023-05-04T02:11:06.029Z,176.65
2023-05-04T02:12:06.085Z,175.80
2023-05-04T02:13:06.056Z,176.70
2023-05-04T02:14:06.050Z,176.58
2023-05-04T02:15:06.059Z,176.21
2023-05-04T02:16:06.086Z,176.97
2023-05-04T02:17:06.165Z,175.60
2023-05-04T02:18:06.172Z,175.76
2023-05-04T02:19:06.133Z,176.27
2023-05-04T02:20:06.406Z,176.57
2023-05-04T02:21:06.177Z,175.45
2023-05-04T02:22:06.203Z,175.69
2023-05-04T02:23:06.229Z,173.95
2023-05-04T02:24:06.261Z,176.00
2023-05-04T02:25:06.232Z,175.85
2023-05-04T02:26:06.228Z,175.41
2023-05-04T02:27:06.247Z,175.62
2023-05-04T02:28:06.260Z,173.70
2023-05-04T02:29:06.270Z,175.23
2023-05-04T02:30:06.536Z,175.76
2023-05-04T02:31:06.364Z,175.71
2023-05-04T02:32:06.347Z,174.18
2023-05-04T02:33:06.309Z,175.23
2023-05-04T02:34:06.285Z,175.14
2023-05-04T02:35:06.314Z,174.71
2023-05-04T02:36:06.316Z,175.20
2023-05-04T02:37:07.582Z,174.34
2023-05-04T02:38:06.301Z,174.20
2023-05-04T02:39:06.319Z,175.06
2023-05-04T02:40:06.629Z,175.70
2023-05-04T02:41:06.346Z,175.81
2023-05-04T02:42:06.350Z,175.18
2023-05-04T02:43:06.356Z,174.43
2023-05-04T02:44:06.383Z,175.47
2023-05-04T02:45:06.380Z,174.97
2023-05-04T02:46:06.412Z,173.33
2023-05-04T02:47:06.402Z,174.86
2023-05-04T02:48:06.444Z,173.28
2023-05-04T02:49:06.427Z,174.59
2023-05-04T02:50:06.690Z,174.54
2023-05-04T02:51:06.442Z,173.32
2023-05-04T02:52:06.458Z,173.91
2023-05-04T02:53:06.465Z,173.49
2023-05-04T02:54:06.463Z,175.04
2023-05-04T02:55:06.462Z,172.94
2023-05-04T02:56:06.445Z,173.26
2023-05-04T02:57:06.453Z,174.17
2023-05-04T02:58:06.445Z,173.55
2023-05-04T02:59:06.486Z,172.99
2023-05-04T03:00:06.730Z,173.52
2023-05-04T03:01:06.491Z,174.42
2023-05-04T03:02:06.464Z,172.56
2023-05-04T03:03:06.497Z,173.95
2023-05-04T03:04:06.511Z,174.05
2023-05-04T03:05:06.582Z,173.84
2023-05-04T03:06:06.484Z,172.72
2023-05-04T03:07:06.490Z,175.01
2023-05-04T03:08:06.487Z,173.77
2023-05-04T03:09:06.489Z,173.29
2023-05-04T03:10:06.775Z,173.68
2023-05-04T03:11:06.500Z,173.10
2023-05-04T03:12:06.511Z,172.25
2023-05-04T03:13:06.564Z,172.58
2023-05-04T03:14:06.527Z,172.69
2023-05-04T03:15:06.514Z,172.78
2023-05-04T03:16:06.526Z,173.23
2023-05-04T03:17:06.535Z,172.62
2023-05-04T03:18:06.567Z,172.44
2023-05-04T03:19:06.547Z,171.57
2023-05-04T03:20:06.790Z,172.68
2023-05-04T03:21:06.552Z,173.06
2023-05-04T03:22:06.537Z,173.33
2023-05-04T03:23:06.539Z,172.71
2023-05-04T03:24:06.541Z,171.26
2023-05-04T03:25:06.532Z,172.47
2023-05-04T03:26:06.522Z,173.14
2023-05-04T03:27:06.536Z,173.31
2023-05-04T03:28:06.518Z,172.18
2023-05-04T03:29:06.522Z,172.33
2023-05-04T03:30:06.777Z,172.10
2023-05-04T03:31:06.529Z,172.07
2023-05-04T03:32:06.645Z,172.02
2023-05-04T03:33:06.574Z,171.47
2023-05-04T03:34:06.514Z,172.14
2023-05-04T03:35:06.509Z,171.96
2023-05-04T03:36:06.519Z,170.74
2023-05-04T03:37:06.548Z,171.27
2023-05-04T03:38:06.559Z,171.14
2023-05-04T03:39:06.550Z,170.88
2023-05-04T03:40:06.786Z,170.14
2023-05-04T03:41:06.545Z,170.74
2023-05-04T03:42:06.579Z,170.58
2023-05-04T03:43:06.574Z,172.05
2023-05-04T03:44:06.593Z,170.66
2023-05-04T03:45:06.582Z,171.10
2023-05-04T03:46:06.698Z,171.72
2023-05-04T03:47:06.625Z,171.40
2023-05-04T03:48:06.700Z,171.88
2023-05-04T03:49:06.665Z,171.37
2023-05-04T03:50:07.011Z,171.29
2023-05-04T03:51:06.752Z,172.59
2023-05-04T03:52:06.782Z,171.94
2023-05-04T03:53:06.832Z,172.04
2023-05-04T03:54:06.723Z,171.29
2023-05-04T03:55:06.749Z,170.81
2023-05-04T03:56:06.774Z,171.04
2023-05-04T03:57:06.768Z,169.66
2023-05-04T03:58:06.784Z,169.84
2023-05-04T03:59:06.797Z,171.13
2023-05-04T04:00:07.049Z,170.51
2023-05-04T04:01:06.814Z,171.56
2023-05-04T04:02:06.888Z,170.34
2023-05-04T04:03:06.930Z,170.30
2023-05-04T04:04:06.904Z,169.92
2023-05-04T04:05:06.869Z,169.80
2023-05-04T04:06:06.899Z,171.64
2023-05-04T04:07:06.886Z,169.55
2023-05-04T04:08:06.914Z,170.58
2023-05-04T04:09:06.901Z,169.93
2023-05-04T04:10:07.129Z,170.51
2023-05-04T04:11:06.945Z,170.04
2023-05-04T04:12:06.927Z,170.33
2023-05-04T04:13:06.972Z,172.22
2023-05-04T04:14:06.944Z,170.98
2023-05-04T04:15:06.944Z,170.87
2023-05-04T04:16:07.028Z,171.11
2023-05-04T04:17:06.966Z,170.21
2023-05-04T04:18:07.048Z,170.28
2023-05-04T04:19:06.933Z,170.42
2023-05-04T04:20:07.105Z,170.57
2023-05-04T04:21:06.930Z,170.81
2023-05-04T04:22:06.918Z,170.33
2023-05-04T04:23:06.901Z,170.97
2023-05-04T04:24:06.902Z,171.04
2023-05-04T04:25:06.899Z,171.09
2023-05-04T04:26:06.891Z,171.25
2023-05-04T04:27:06.893Z,171.61
2023-05-04T04:28:06.881Z,171.55
2023-05-04T04:29:06.883Z,171.15
2023-05-04T04:30:07.043Z,170.00
2023-05-04T04:31:06.894Z,170.42
2023-05-04T04:32:06.900Z,170.49
2023-05-04T04:33:06.913Z,170.68
2023-05-04T04:34:06.869Z,170.58
2023-05-04T04:35:06.888Z,171.29
2023-05-04T04:36:06.871Z,171.99
2023-05-04T04:37:06.894Z,171.78
2023-05-04T04:38:06.877Z,172.01
2023-05-04T04:39:06.866Z,171.35
2023-05-04T04:40:06.943Z,170.81
2023-05-04T04:41:06.868Z,171.82
2023-05-04T04:42:06.865Z,170.17
2023-05-04T04:43:06.869Z,169.17
2023-05-04T04:44:06.861Z,169.31
2023-05-04T04:45:06.846Z,169.39
2023-05-04T04:46:06.844Z,170.22
2023-05-04T04:47:06.908Z,170.23
2023-05-04T04:48:07.192Z,169.59
2023-05-04T04:49:06.848Z,170.65
2023-05-04T04:50:06.982Z,169.47
2023-05-04T04:51:06.853Z,171.27
2023-05-04T04:52:06.855Z,171.28
2023-05-04T04:53:06.850Z,169.33
2023-05-04T04:54:06.854Z,170.11
2023-05-04T04:55:06.852Z,169.17
2023-05-04T04:56:06.867Z,170.84
2023-05-04T04:57:06.879Z,170.23
2023-05-04T04:58:06.892Z,169.77
2023-05-04T04:59:06.901Z,168.90
2023-05-04T05:00:07.052Z,168.57
2023-05-04T05:01:06.917Z,168.20
2023-05-04T05:02:06.901Z,169.00
2023-05-04T05:03:06.932Z,169.09
2023-05-04T05:04:06.904Z,169.11
2023-05-04T05:05:07.081Z,169.25
2023-05-04T05:06:06.903Z,169.73
2023-05-04T05:07:06.908Z,170.24
2023-05-04T05:08:06.936Z,170.59
2023-05-04T05:09:06.905Z,168.45
2023-05-04T05:10:07.190Z,169.36
2023-05-04T05:11:06.896Z,169.23
2023-05-04T05:12:06.890Z,168.19
2023-05-04T05:13:06.950Z,168.38
2023-05-04T05:14:06.890Z,168.85
2023-05-04T05:15:06.887Z,168.83
2023-05-04T05:16:06.976Z,167.48
2023-05-04T05:17:06.940Z,169.37
2023-05-04T05:18:06.979Z,168.01
2023-05-04T05:19:06.866Z,169.69
2023-05-04T05:20:06.996Z,169.37
2023-05-04T05:21:06.861Z,169.26
2023-05-04T05:22:06.880Z,168.42
2023-05-04T05:23:06.874Z,168.27
2023-05-04T05:24:06.846Z,168.61
2023-05-04T05:25:06.875Z,168.03
2023-05-04T05:26:06.851Z,167.30
2023-05-04T05:27:06.837Z,168.94
2023-05-04T05:28:06.842Z,168.67
2023-05-04T05:29:06.866Z,169.13
2023-05-04T05:30:07.203Z,167.83
2023-05-04T05:31:06.903Z,168.00
2023-05-04T05:32:06.851Z,168.57
2023-05-04T05:33:06.942Z,169.02
2023-05-04T05:34:06.815Z,168.92
2023-05-04T05:35:06.855Z,168.61
2023-05-04T05:36:06.847Z,168.77
2023-05-04T05:37:06.832Z,169.53
2023-05-04T05:38:06.840Z,171.30
2023-05-04T05:39:06.810Z,176.73
2023-05-04T05:40:07.029Z,187.86
2023-05-04T05:41:06.848Z,191.71
2023-05-04T05:42:06.796Z,197.93
2023-05-04T05:43:06.814Z,199.32
2023-05-04T05:44:06.808Z,204.90
2023-05-04T05:45:06.885Z,208.69
2023-05-04T05:46:07.063Z,216.29
2023-05-04T05:47:07.000Z,215.73
2023-05-04T05:48:07.106Z,217.48
2023-05-04T05:49:07.075Z,221.80
2023-05-04T05:50:07.289Z,225.32
2023-05-04T05:51:07.157Z,227.58
2023-05-04T05:52:07.195Z,233.08
2023-05-04T05:53:08.205Z,233.57
2023-05-04T05:54:07.347Z,239.67
2023-05-04T05:55:07.283Z,243.40
2023-05-04T05:56:07.333Z,241.18
2023-05-04T05:57:07.374Z,249.25
2023-05-04T05:58:07.409Z,247.96
2023-05-04T05:59:07.436Z,250.00
2023-05-04T06:00:07.633Z,250.08
2023-05-04T06:01:07.575Z,247.92
2023-05-04T06:02:07.726Z,249.99
2023-05-04T06:03:07.764Z,249.05
2023-05-04T06:04:07.742Z,250.36
2023-05-04T06:05:07.786Z,249.77
2023-05-04T06:06:07.696Z,249.41
2023-05-04T06:07:07.749Z,249.22
2023-05-04T06:08:07.736Z,248.14
2023-05-04T06:09:07.775Z,249.59
2023-05-04T06:10:08.083Z,246.00
2023-05-04T06:11:07.826Z,245.95
2023-05-04T06:12:07.872Z,250.00
2023-05-04T06:13:07.959Z,247.25
2023-05-04T06:14:07.866Z,248.71
2023-05-04T06:15:07.874Z,247.70
2023-05-04T06:16:08.357Z,249.13
2023-05-04T06:17:07.915Z,249.65
2023-05-04T06:18:07.989Z,248.19
2023-05-04T06:19:07.912Z,250.67
2023-05-04T06:20:08.000Z,247.22
2023-05-04T06:21:08.030Z,248.44
2023-05-04T06:22:07.919Z,250.85
2023-05-04T06:23:07.933Z,250.00
2023-05-04T06:24:07.927Z,250.00
2023-05-04T06:25:08.423Z,247.50
2023-05-04T06:26:07.955Z,249.44
2023-05-04T06:27:07.923Z,249.78
2023-05-04T06:28:08.063Z,248.05
2023-05-04T06:29:08.006Z,242.02
2023-05-04T06:30:08.269Z,239.86
2023-05-04T06:31:07.965Z,234.73
2023-05-04T06:32:07.985Z,232.22
2023-05-04T06:33:07.930Z,231.75
2023-05-04T06:34:07.906Z,233.03
2023-05-04T06:35:07.821Z,232.22
2023-05-04T06:36:07.795Z,233.50
2023-05-04T06:37:07.737Z,233.58
2023-05-04T06:38:07.797Z,232.25
2023-05-04T06:39:07.679Z,231.16
2023-05-04T06:40:07.685Z,232.77
2023-05-04T06:41:07.641Z,232.98
2023-05-04T06:42:07.541Z,235.81
2023-05-04T06:43:07.513Z,237.84
2023-05-04T06:44:07.564Z,238.94
2023-05-04T06:45:07.443Z,248.50
2023-05-04T06:46:07.385Z,250.00
2023-05-04T06:47:07.353Z,250.02
2023-05-04T06:48:07.768Z,249.12
2023-05-04T06:49:07.240Z,249.78
2023-05-04T06:50:07.223Z,249.16
2023-05-04T06:51:07.157Z,249.19
2023-05-04T06:52:07.116Z,246.87
2023-05-04T06:53:07.097Z,245.00
2023-05-04T06:54:07.025Z,242.67
2023-05-04T06:55:07.737Z,240.00
2023-05-04T06:56:06.915Z,238.97
2023-05-04T06:57:06.879Z,238.18
2023-05-04T06:58:06.954Z,237.76
2023-05-04T06:59:06.783Z,235.29
2023-05-04T07:00:06.901Z,235.25
2023-05-04T07:01:06.807Z,239.06
2023-05-04T07:02:06.814Z,240.08
2023-05-04T07:03:06.790Z,239.82
2023-05-04T07:04:06.885Z,239.37
2023-05-04T07:05:06.709Z,239.43
2023-05-04T07:06:06.664Z,238.28
2023-05-04T07:07:06.651Z,239.66
2023-05-04T07:08:06.599Z,187.19
2023-05-04T07:09:06.582Z,85.56
2023-05-04T07:10:06.756Z,36.66
2023-05-04T07:11:06.529Z,26.96
2023-05-04T07:12:06.578Z,15.68
2023-05-04T07:13:06.671Z,2.77
2023-05-04T07:14:07.870Z,0.00
2023-05-04T07:15:06.664Z,0.00
2023-05-04T07:16:06.711Z,0.00
2023-05-04T07:17:06.708Z,0.00
2023-05-04T07:18:06.789Z,0.00
2023-05-04T07:19:06.727Z,0.00
2023-05-04T07:20:06.965Z,0.00
2023-05-04T07:21:26.086Z,0.08
2023-05-04T07:22:08.106Z,0.53
2023-05-04T07:23:06.694Z,4.30
2023-05-04T07:24:06.692Z,12.91
2023-05-04T07:25:06.722Z,28.78
2023-05-04T07:26:06.693Z,49.98
2023-05-04T07:27:06.675Z,59.48
2023-05-04T07:28:07.245Z,59.76
2023-05-04T07:29:06.645Z,56.09
2023-05-04T07:30:06.832Z,56.48
2023-05-04T07:31:06.677Z,51.33
2023-05-04T07:32:06.646Z,52.88
2023-05-04T07:33:06.647Z,53.70
2023-05-04T07:34:06.669Z,49.95
2023-05-04T07:35:06.628Z,39.10
2023-05-04T07:36:06.695Z,37.90
2023-05-04T07:37:06.741Z,59.01
2023-05-04T07:38:06.539Z,77.68
2023-05-04T07:39:06.540Z,97.54
2023-05-04T07:40:06.887Z,112.36
2023-05-04T07:41:06.509Z,119.25
2023-05-04T07:42:06.510Z,125.01
2023-05-04T07:43:06.620Z,133.19
2023-05-04T07:44:06.515Z,140.29
2023-05-04T07:45:06.542Z,146.40
2023-05-04T07:46:06.557Z,146.61
2023-05-04T07:47:06.519Z,147.97
2023-05-04T07:48:06.550Z,151.40
2023-05-04T07:49:06.488Z,156.97
2023-05-04T07:50:06.678Z,165.15
2023-05-04T07:51:06.486Z,168.90
2023-05-04T07:52:06.477Z,178.57
2023-05-04T07:53:06.474Z,180.23
2023-05-04T07:54:06.475Z,179.14
2023-05-04T07:55:06.510Z,179.79
2023-05-04T07:56:06.574Z,181.82
2023-05-04T07:57:06.638Z,181.73
2023-05-04T07:58:06.745Z,181.34
2023-05-04T07:59:06.721Z,182.58
2023-05-04T08:00:06.879Z,184.12
2023-05-04T08:01:06.830Z,183.48
2023-05-04T08:02:06.793Z,183.40
2023-05-04T08:03:06.781Z,181.78
2023-05-04T08:04:06.692Z,183.49
2023-05-04T08:05:06.702Z,186.70
2023-05-04T08:06:06.726Z,189.09
2023-05-04T08:07:06.771Z,189.16
2023-05-04T08:08:06.658Z,189.73
2023-05-04T08:09:06.707Z,190.76
2023-05-04T08:10:06.727Z,191.03
2023-05-04T08:11:19.390Z,192.58
2023-05-04T08:12:07.603Z,189.22
2023-05-04T08:13:06.620Z,189.89
2023-05-04T08:14:06.577Z,190.81
2023-05-04T08:15:06.796Z,192.23
2023-05-04T08:16:06.545Z,193.74
2023-05-04T08:17:06.534Z,192.42
2023-05-04T08:18:06.541Z,193.88
2023-05-04T08:19:06.586Z,194.76
2023-05-04T08:20:06.495Z,194.84
2023-05-04T08:21:06.490Z,195.18
2023-05-04T08:22:06.435Z,195.95
2023-05-04T08:23:06.453Z,194.83
2023-05-04T08:24:06.408Z,192.88
2023-05-04T08:25:06.577Z,195.34
2023-05-04T08:26:06.382Z,196.85
2023-05-04T08:27:08.925Z,198.63
2023-05-04T08:28:06.357Z,197.70
2023-05-04T08:29:06.327Z,196.77
2023-05-04T08:30:06.390Z,195.76
2023-05-04T08:31:06.268Z,197.01
2023-05-04T08:32:06.379Z,197.97
2023-05-04T08:33:06.339Z,198.47
2023-05-04T08:34:06.817Z,199.59
2023-05-04T08:35:06.292Z,199.10
2023-05-04T08:36:06.168Z,199.79
2023-05-04T08:37:06.203Z,199.26
2023-05-04T08:38:06.208Z,198.45
2023-05-04T08:39:06.122Z,198.45
2023-05-04T08:40:06.208Z,195.20
2023-05-04T08:41:06.206Z,193.75
2023-05-04T08:42:06.053Z,192.65
2023-05-04T08:43:06.049Z,192.58
2023-05-04T08:44:06.015Z,187.96
2023-05-04T08:45:06.250Z,184.86
2023-05-04T08:46:06.097Z,185.50
2023-05-04T08:47:06.026Z,182.88
2023-05-04T08:48:06.231Z,178.81
2023-05-04T08:49:05.954Z,176.80
2023-05-04T08:50:05.957Z,175.70
2023-05-04T08:51:05.935Z,178.40
2023-05-04T08:52:05.921Z,182.27
2023-05-04T08:53:05.974Z,182.16
2023-05-04T08:54:06.036Z,182.36
2023-05-04T08:55:06.297Z,170.71
2023-05-04T08:56:06.147Z,151.58
2023-05-04T08:57:06.252Z,134.14
2023-05-04T08:58:06.232Z,119.72
2023-05-04T08:59:06.248Z,117.23
2023-05-04T09:00:06.321Z,118.68
2023-05-04T09:01:06.577Z,117.54
2023-05-04T09:02:06.710Z,120.28
2023-05-04T09:03:06.603Z,122.37
2023-05-04T09:04:06.556Z,127.38
2023-05-04T09:05:06.690Z,131.17
2023-05-04T09:06:06.582Z,135.40
2023-05-04T09:07:06.602Z,137.54
2023-05-04T09:08:06.688Z,137.04
2023-05-04T09:09:06.732Z,136.00
2023-05-04T09:10:08.264Z,140.68
2023-05-04T09:11:06.824Z,143.03
2023-05-04T09:12:06.840Z,134.31
2023-05-04T09:13:06.895Z,132.11
2023-05-04T09:14:06.924Z,133.53
2023-05-04T09:15:07.063Z,133.65
2023-05-04T09:16:06.878Z,134.37
2023-05-04T09:17:06.941Z,135.49
2023-05-04T09:18:06.920Z,136.56
2023-05-04T09:19:06.859Z,137.03
2023-05-04T09:20:06.859Z,140.11
2023-05-04T09:21:06.813Z,142.01
2023-05-04T09:22:06.864Z,144.95
2023-05-04T09:23:06.810Z,147.81
2023-05-04T09:24:06.800Z,152.71
2023-05-04T09:25:06.867Z,157.89
2023-05-04T09:26:07.326Z,162.24
2023-05-04T09:27:06.802Z,162.48
2023-05-04T09:28:06.788Z,163.62
2023-05-04T09:29:06.815Z,165.64
2023-05-04T09:30:06.819Z,169.69
2023-05-04T09:31:06.847Z,176.47
2023-05-04T09:32:06.799Z,175.24
2023-05-04T09:33:06.820Z,176.41
2023-05-04T09:34:06.837Z,176.99
2023-05-04T09:35:07.051Z,177.85
2023-05-04T09:36:06.815Z,175.41
2023-05-04T09:37:06.844Z,176.23
2023-05-04T09:38:06.840Z,176.42
2023-05-04T09:39:06.840Z,176.02
2023-05-04T09:40:06.794Z,174.28
2023-05-04T09:41:06.752Z,164.46
2023-05-04T09:42:06.733Z,166.91
2023-05-04T09:43:06.752Z,166.44
2023-05-04T09:44:06.722Z,162.00
2023-05-04T09:45:06.969Z,171.39
2023-05-04T09:46:06.707Z,167.90
2023-05-04T09:47:06.627Z,166.33
2023-05-04T09:48:06.618Z,162.18
2023-05-04T09:49:06.586Z,162.32
2023-05-04T09:50:06.562Z,162.72
2023-05-04T09:51:06.554Z,163.61
2023-05-04T09:52:06.566Z,162.70
2023-05-04T09:53:06.525Z,160.68
2023-05-04T09:54:06.503Z,163.25
2023-05-04T09:55:06.730Z,163.28
2023-05-04T09:56:08.126Z,165.24
2023-05-04T09:57:06.546Z,170.63
2023-05-04T09:58:06.461Z,171.49
2023-05-04T09:59:06.429Z,170.03
2023-05-04T10:00:06.399Z,177.10
2023-05-04T10:01:06.375Z,169.76
2023-05-04T10:02:14.582Z,168.57
2023-05-04T10:03:07.436Z,168.64
2023-05-04T10:04:06.335Z,168.64
2023-05-04T10:05:06.652Z,166.45
2023-05-04T10:06:06.282Z,167.16
2023-05-04T10:07:06.251Z,168.04
2023-05-04T10:08:06.236Z,163.24
2023-05-04T10:09:06.259Z,154.66
2023-05-04T10:10:06.201Z,151.43
2023-05-04T10:11:06.221Z,154.13
2023-05-04T10:12:06.157Z,153.90
2023-05-04T10:13:06.187Z,152.49
2023-05-04T10:14:06.112Z,145.94
2023-05-04T10:15:06.294Z,145.59
2023-05-04T10:16:06.161Z,143.97
2023-05-04T10:17:06.169Z,145.81
2023-05-04T10:18:06.189Z,149.16
2023-05-04T10:19:06.242Z,148.75
2023-05-04T10:20:06.274Z,147.54
2023-05-04T10:21:06.371Z,151.40
2023-05-04T10:22:06.329Z,152.35
2023-05-04T10:23:06.405Z,147.73
2023-05-04T10:24:06.437Z,148.29
2023-05-04T10:25:06.559Z,149.40
2023-05-04T10:26:06.573Z,151.90
2023-05-04T10:27:06.603Z,152.42
2023-05-04T10:28:06.610Z,154.13
2023-05-04T10:29:06.611Z,153.57
2023-05-04T10:30:06.648Z,155.26
2023-05-04T10:31:06.680Z,156.37
2023-05-04T10:32:06.835Z,154.56
2023-05-04T10:33:06.837Z,156.62
2023-05-04T10:34:06.831Z,157.92
2023-05-04T10:35:07.031Z,158.41
2023-05-04T10:36:06.924Z,158.64
2023-05-04T10:37:06.940Z,158.79
2023-05-04T10:38:07.074Z,158.37
2023-05-04T10:39:07.007Z,157.62
2023-05-04T10:40:07.963Z,157.68
2023-05-04T10:41:07.158Z,159.71
2023-05-04T10:42:07.127Z,157.72
2023-05-04T10:43:07.288Z,154.79
2023-05-04T10:44:07.193Z,154.27
2023-05-04T10:45:07.249Z,153.15
2023-05-04T10:46:07.290Z,152.43
2023-05-04T10:47:07.389Z,153.53
2023-05-04T10:48:07.386Z,155.34
2023-05-04T10:49:07.369Z,155.22
2023-05-04T10:50:07.445Z,153.59
2023-05-04T10:51:07.456Z,153.06
2023-05-04T10:52:07.575Z,153.24
2023-05-04T10:53:07.560Z,153.03
2023-05-04T10:54:08.323Z,151.57
2023-05-04T10:55:07.702Z,149.54
2023-05-04T10:56:07.621Z,151.34
2023-05-04T10:57:07.675Z,150.39
2023-05-04T10:58:07.631Z,150.42
2023-05-04T10:59:07.929Z,150.34
2023-05-04T11:00:07.643Z,150.42
2023-05-04T11:01:07.632Z,149.98
2023-05-04T11:02:08.386Z,150.22
2023-05-04T11:03:07.669Z,147.87
2023-05-04T11:04:07.551Z,147.36
2023-05-04T11:05:07.873Z,148.19
2023-05-04T11:06:07.665Z,147.62
2023-05-04T11:07:07.572Z,147.66
2023-05-04T11:08:07.677Z,147.22
2023-05-04T11:09:07.674Z,145.96
2023-05-04T11:10:07.715Z,146.83
2023-05-04T11:11:07.725Z,146.22
2023-05-04T11:12:07.793Z,147.36
2023-05-04T11:13:08.188Z,147.06
2023-05-04T11:14:07.829Z,146.56
2023-05-04T11:15:08.106Z,146.62
2023-05-04T11:16:07.921Z,146.38
2023-05-04T11:17:16.009Z,146.05
2023-05-04T11:18:09.104Z,146.13
2023-05-04T11:19:07.955Z,146.05
2023-05-04T11:20:07.891Z,145.66
2023-05-04T11:21:08.028Z,145.21
2023-05-04T11:22:07.832Z,144.62
2023-05-04T11:23:10.337Z,145.54
2023-05-04T11:24:07.982Z,144.77
2023-05-04T11:25:08.023Z,144.75
2023-05-04T11:26:08.062Z,141.58
2023-05-04T11:27:08.234Z,140.28
2023-05-04T11:28:08.823Z,140.99
2023-05-04T11:29:09.146Z,140.10
2023-05-04T11:30:08.924Z,140.62
2023-05-04T11:31:08.064Z,138.89
2023-05-04T11:32:07.976Z,136.12
2023-05-04T11:33:07.974Z,136.02
2023-05-04T11:34:08.134Z,135.09
2023-05-04T11:35:08.224Z,135.05
2023-05-04T11:36:07.940Z,135.30
2023-05-04T11:37:07.891Z,135.43
2023-05-04T11:38:07.884Z,134.47
2023-05-04T11:39:07.911Z,135.12
2023-05-04T11:40:07.845Z,134.07
2023-05-04T11:41:07.829Z,134.80
2023-05-04T11:42:07.826Z,134.80
2023-05-04T11:43:07.791Z,134.73
2023-05-04T11:44:07.812Z,134.82
2023-05-04T11:45:07.802Z,133.79
2023-05-04T11:46:07.863Z,132.81
2023-05-04T11:47:07.734Z,132.88
2023-05-04T11:48:07.791Z,131.85
2023-05-04T11:49:07.703Z,130.38
2023-05-04T11:50:07.721Z,131.35
2023-05-04T11:51:07.676Z,130.06
2023-05-04T11:52:07.769Z,130.96
2023-05-04T11:53:07.673Z,130.68
2023-05-04T11:54:07.677Z,131.27
2023-05-04T11:55:07.894Z,132.04
2023-05-04T11:56:07.733Z,130.30
2023-05-04T11:57:07.727Z,129.67
2023-05-04T11:58:07.749Z,129.20
2023-05-04T11:59:07.752Z,129.71
2023-05-04T12:00:07.854Z,128.21
2023-05-04T12:01:08.397Z,129.03
2023-05-04T12:02:07.853Z,127.46
2023-05-04T12:03:08.156Z,127.77
2023-05-04T12:04:08.217Z,126.11
2023-05-04T12:05:08.241Z,126.86
2023-05-04T12:06:08.020Z,127.38
2023-05-04T12:07:08.046Z,126.10
2023-05-04T12:08:08.079Z,126.43
2023-05-04T12:09:08.138Z,125.01
2023-05-04T12:10:08.182Z,124.88
2023-05-04T12:11:08.175Z,125.44
2023-05-04T12:12:08.229Z,124.70
2023-05-04T12:13:08.313Z,124.97
2023-05-04T12:14:08.261Z,124.67
2023-05-04T12:15:08.469Z,122.89
2023-05-04T12:16:08.350Z,123.99
2023-05-04T12:17:08.333Z,123.13
2023-05-04T12:18:08.416Z,122.56
2023-05-04T12:19:08.471Z,122.76
2023-05-04T12:20:08.454Z,120.86
2023-05-04T12:21:08.482Z,120.87
2023-05-04T12:22:08.517Z,120.89
2023-05-04T12:23:08.654Z,120.84
2023-05-04T12:24:08.584Z,120.48
2023-05-04T12:25:09.009Z,120.24
2023-05-04T12:26:08.623Z,120.91
2023-05-04T12:27:08.614Z,120.80
2023-05-04T12:28:08.601Z,119.86
2023-05-04T12:29:08.630Z,120.19